createdAt,value
2018-11-29T00:00:25.974Z,1010.57
2018-11-29T00:01:25.958Z,1010.62
2018-11-29T00:02:25.928Z,1010.64
2018-11-29T00:03:25.903Z,1010.63
2018-11-29T00:04:25.885Z,1010.60
2018-11-29T00:05:25.855Z,1010.63
2018-11-29T00:06:25.827Z,1010.65
2018-11-29T00:07:25.812Z,1010.67
2018-11-29T00:08:25.783Z,1010.67
2018-11-29T00:09:25.755Z,1010.68
2018-11-29T00:10:25.731Z,1010.64
2018-11-29T00:11:25.709Z,1010.64
2018-11-29T00:12:25.684Z,1010.69
2018-11-29T00:13:25.659Z,1010.66
2018-11-29T00:14:25.637Z,1010.68
2018-11-29T00:15:25.619Z,1010.69
2018-11-29T00:16:25.593Z,1010.69
2018-11-29T00:17:25.581Z,1010.72
2018-11-29T00:18:25.538Z,1010.69
2018-11-29T00:19:25.517Z,1010.68
2018-11-29T00:20:25.494Z,1010.69
2018-11-29T00:21:25.476Z,1010.71
2018-11-29T00:22:25.442Z,1010.73
2018-11-29T00:23:25.418Z,1010.67
2018-11-29T00:24:25.394Z,1010.67
2018-11-29T00:25:25.369Z,1010.57
2018-11-29T00:26:25.347Z,1010.58
2018-11-29T00:27:25.331Z,1010.55
2018-11-29T00:28:25.300Z,1010.54
2018-11-29T00:29:25.273Z,1010.62
2018-11-29T00:30:25.273Z,1010.62
2018-11-29T00:31:25.225Z,1010.63
2018-11-29T00:32:25.201Z,1010.65
2018-11-29T00:33:25.179Z,1010.64
2018-11-29T00:34:25.157Z,1010.61
2018-11-29T00:35:25.136Z,1010.62
2018-11-29T00:36:25.106Z,1010.62
2018-11-29T00:37:25.081Z,1010.68
2018-11-29T00:38:25.064Z,1010.66
2018-11-29T00:39:25.136Z,1010.63
2018-11-29T00:40:25.011Z,1010.67
2018-11-29T00:41:24.988Z,1010.67
2018-11-29T00:42:24.962Z,1010.62
2018-11-29T00:43:24.943Z,1010.72
2018-11-29T00:44:24.916Z,1010.71
2018-11-29T00:45:24.891Z,1010.71
2018-11-29T00:46:24.866Z,1010.74
2018-11-29T00:47:24.850Z,1010.78
2018-11-29T00:48:24.820Z,1010.76
2018-11-29T00:49:24.796Z,1010.71
2018-11-29T00:50:24.783Z,1010.76
2018-11-29T00:51:24.756Z,1010.80
2018-11-29T00:52:24.724Z,1010.76
2018-11-29T00:53:24.708Z,1010.79
2018-11-29T00:54:24.698Z,1010.79
2018-11-29T00:55:24.657Z,1010.73
2018-11-29T00:56:24.627Z,1010.76
2018-11-29T00:57:24.603Z,1010.74
2018-11-29T00:58:24.597Z,1010.74
2018-11-29T00:59:24.556Z,1010.73
2018-11-29T01:00:24.533Z,1010.67
2018-11-29T01:01:24.508Z,1010.68
2018-11-29T01:02:24.492Z,1010.65
2018-11-29T01:03:24.467Z,1010.64
2018-11-29T01:04:24.437Z,1010.58
2018-11-29T01:05:24.411Z,1010.60
2018-11-29T01:06:24.388Z,1010.59
2018-11-29T01:07:24.368Z,1010.56
2018-11-29T01:08:24.343Z,1010.56
2018-11-29T01:09:24.320Z,1010.58
2018-11-29T01:10:24.293Z,1010.53
2018-11-29T01:11:24.278Z,1010.56
2018-11-29T01:12:24.245Z,1010.57
2018-11-29T01:13:24.221Z,1010.54
2018-11-29T01:14:24.198Z,1010.55
2018-11-29T01:15:24.180Z,1010.60
2018-11-29T01:16:24.150Z,1010.59
2018-11-29T01:17:24.128Z,1010.64
2018-11-29T01:18:24.101Z,1010.59
2018-11-29T01:19:24.079Z,1010.62
2018-11-29T01:20:24.055Z,1010.64
2018-11-29T01:21:24.031Z,1010.61
2018-11-29T01:22:24.009Z,1010.70
2018-11-29T01:23:23.992Z,1010.62
2018-11-29T01:24:23.960Z,1010.66
2018-11-29T01:25:23.934Z,1010.62
2018-11-29T01:26:23.912Z,1010.61
2018-11-29T01:27:23.897Z,1010.61
2018-11-29T01:28:23.866Z,1010.62
2018-11-29T01:29:23.846Z,1010.68
2018-11-29T01:30:23.820Z,1010.66
2018-11-29T01:31:23.794Z,1010.62
2018-11-29T01:32:23.773Z,1010.64
2018-11-29T01:33:23.745Z,1010.67
2018-11-29T01:34:23.723Z,1010.69
2018-11-29T01:35:24.337Z,1010.71
2018-11-29T01:36:23.682Z,1010.71
2018-11-29T01:37:23.652Z,1010.75
2018-11-29T01:38:23.627Z,1010.72
2018-11-29T01:39:23.612Z,1010.74
2018-11-29T01:40:23.629Z,1010.70
2018-11-29T01:41:23.568Z,1010.66
2018-11-29T01:42:23.534Z,1010.69
2018-11-29T01:43:23.511Z,1010.59
2018-11-29T01:44:23.490Z,1010.55
2018-11-29T01:45:23.463Z,1010.50
2018-11-29T01:46:23.439Z,1010.48
2018-11-29T01:47:23.417Z,1010.51
2018-11-29T01:48:23.400Z,1010.49
2018-11-29T01:49:23.366Z,1010.46
2018-11-29T01:50:23.346Z,1010.44
2018-11-29T01:51:23.322Z,1010.45
2018-11-29T01:52:23.298Z,1010.42
2018-11-29T01:53:23.273Z,1010.38
2018-11-29T01:54:23.251Z,1010.43
2018-11-29T01:55:23.228Z,1010.50
2018-11-29T01:56:23.202Z,1010.48
2018-11-29T01:57:23.188Z,1010.46
2018-11-29T01:58:23.156Z,1010.51
2018-11-29T01:59:23.140Z,1010.49
2018-11-29T02:00:23.107Z,1010.44
2018-11-29T02:01:23.101Z,1010.44
2018-11-29T02:02:23.059Z,1010.43
2018-11-29T02:03:23.039Z,1010.43
2018-11-29T02:04:23.014Z,1010.45
2018-11-29T02:05:22.989Z,1010.41
2018-11-29T02:06:22.968Z,1010.43
2018-11-29T02:07:22.943Z,1010.42
2018-11-29T02:08:22.920Z,1010.44
2018-11-29T02:09:22.894Z,1010.41
2018-11-29T02:10:22.880Z,1010.35
2018-11-29T02:11:22.847Z,1010.34
2018-11-29T02:12:22.824Z,1010.38
2018-11-29T02:13:22.802Z,1010.39
2018-11-29T02:14:22.775Z,1010.44
2018-11-29T02:15:22.752Z,1010.42
2018-11-29T02:16:22.729Z,1010.48
2018-11-29T02:17:22.705Z,1010.55
2018-11-29T02:18:22.689Z,1010.46
2018-11-29T02:19:22.667Z,1010.44
2018-11-29T02:20:22.634Z,1010.51
2018-11-29T02:21:22.611Z,1010.48
2018-11-29T02:22:22.585Z,1010.48
2018-11-29T02:23:22.569Z,1010.47
2018-11-29T02:24:22.554Z,1010.43
2018-11-29T02:25:22.515Z,1010.44
2018-11-29T02:26:22.504Z,1010.42
2018-11-29T02:27:22.474Z,1010.40
2018-11-29T02:28:22.448Z,1010.40
2018-11-29T02:29:22.422Z,1010.39
2018-11-29T02:30:22.410Z,1010.38
2018-11-29T02:31:22.374Z,1010.36
2018-11-29T02:32:22.363Z,1010.33
2018-11-29T02:33:22.338Z,1010.32
2018-11-29T02:34:22.305Z,1010.36
2018-11-29T02:35:22.282Z,1010.32
2018-11-29T02:36:22.261Z,1010.35
2018-11-29T02:37:22.236Z,1010.35
2018-11-29T02:38:22.212Z,1010.35
2018-11-29T02:39:22.189Z,1010.34
2018-11-29T02:40:22.163Z,1010.33
2018-11-29T02:41:22.147Z,1010.37
2018-11-29T02:42:22.118Z,1010.41
2018-11-29T02:43:22.102Z,1010.38
2018-11-29T02:44:22.093Z,1010.37
2018-11-29T02:45:22.046Z,1010.35
2018-11-29T02:46:22.074Z,1010.39
2018-11-29T02:47:21.998Z,1010.37
2018-11-29T02:48:21.976Z,1010.38
2018-11-29T02:49:21.953Z,1010.34
2018-11-29T02:50:21.930Z,1010.33
2018-11-29T02:51:21.907Z,1010.36
2018-11-29T02:52:21.893Z,1010.33
2018-11-29T02:53:21.861Z,1010.33
2018-11-29T02:54:21.835Z,1010.26
2018-11-29T02:55:21.826Z,1010.27
2018-11-29T02:56:21.790Z,1010.27
2018-11-29T02:57:21.767Z,1010.29
2018-11-29T02:58:21.752Z,1010.24
2018-11-29T02:59:21.729Z,1010.21
2018-11-29T03:00:21.699Z,1010.19
2018-11-29T03:01:21.681Z,1010.22
2018-11-29T03:02:21.649Z,1010.24
2018-11-29T03:03:21.626Z,1010.22
2018-11-29T03:04:21.603Z,1010.20
2018-11-29T03:05:21.580Z,1010.18
2018-11-29T03:06:21.558Z,1010.18
2018-11-29T03:07:21.535Z,1010.18
2018-11-29T03:08:21.518Z,1010.16
2018-11-29T03:09:21.486Z,1010.22
2018-11-29T03:10:21.472Z,1010.18
2018-11-29T03:11:21.623Z,1010.19
2018-11-29T03:12:21.416Z,1010.19
2018-11-29T03:13:21.396Z,1010.18
2018-11-29T03:14:21.370Z,1010.18
2018-11-29T03:15:21.348Z,1010.20
2018-11-29T03:16:21.323Z,1010.19
2018-11-29T03:17:21.302Z,1010.17
2018-11-29T03:18:21.278Z,1010.13
2018-11-29T03:19:21.257Z,1010.13
2018-11-29T03:20:21.232Z,1010.13
2018-11-29T03:21:21.208Z,1010.08
2018-11-29T03:22:21.205Z,1010.11
2018-11-29T03:23:21.170Z,1010.11
2018-11-29T03:24:21.150Z,1010.09
2018-11-29T03:25:21.166Z,1010.03
2018-11-29T03:26:21.105Z,1010.09
2018-11-29T03:27:21.071Z,1010.12
2018-11-29T03:28:21.045Z,1010.10
2018-11-29T03:29:21.039Z,1010.12
2018-11-29T03:30:21.000Z,1010.13
2018-11-29T03:31:20.977Z,1010.13
2018-11-29T03:32:20.966Z,1010.12
2018-11-29T03:33:20.931Z,1010.06
2018-11-29T03:34:20.918Z,1010.04
2018-11-29T03:35:20.883Z,1010.06
2018-11-29T03:36:20.862Z,1010.10
2018-11-29T03:37:20.847Z,1010.06
2018-11-29T03:38:20.813Z,1010.08
2018-11-29T03:39:20.792Z,1010.05
2018-11-29T03:40:20.780Z,1010.10
2018-11-29T03:41:20.756Z,1010.06
2018-11-29T03:42:20.739Z,1010.12
2018-11-29T03:43:20.704Z,1010.13
2018-11-29T03:44:20.680Z,1010.10
2018-11-29T03:45:20.662Z,1010.09
2018-11-29T03:46:20.634Z,1010.12
2018-11-29T03:47:20.642Z,1010.12
2018-11-29T03:48:20.597Z,1010.12
2018-11-29T03:49:20.560Z,1010.15
2018-11-29T03:50:20.539Z,1010.11
2018-11-29T03:51:20.516Z,1010.13
2018-11-29T03:52:20.492Z,1010.09
2018-11-29T03:53:20.472Z,1010.18
2018-11-29T03:54:20.444Z,1010.11
2018-11-29T03:55:20.423Z,1010.08
2018-11-29T03:56:20.397Z,1010.14
2018-11-29T03:57:20.379Z,1010.13
2018-11-29T03:58:20.352Z,1010.09
2018-11-29T03:59:20.334Z,1010.08
2018-11-29T04:00:20.307Z,1010.12
2018-11-29T04:01:20.282Z,1010.08
2018-11-29T04:02:20.262Z,1010.09
2018-11-29T04:03:20.246Z,1010.06
2018-11-29T04:04:20.216Z,1010.03
2018-11-29T04:05:20.194Z,1010.05
2018-11-29T04:06:20.168Z,1010.12
2018-11-29T04:07:20.151Z,1010.06
2018-11-29T04:08:20.126Z,1010.03
2018-11-29T04:09:20.100Z,1010.02
2018-11-29T04:10:20.077Z,1010.07
2018-11-29T04:11:20.055Z,1010.00
2018-11-29T04:12:20.038Z,1010.00
2018-11-29T04:13:20.008Z,1009.99
2018-11-29T04:14:19.984Z,1009.91
2018-11-29T04:15:19.964Z,1009.85
2018-11-29T04:16:19.943Z,1009.92
2018-11-29T04:17:19.917Z,1009.94
2018-11-29T04:18:19.898Z,1010.02
2018-11-29T04:19:19.871Z,1009.98
2018-11-29T04:20:19.856Z,1009.97
2018-11-29T04:21:19.824Z,1009.99
2018-11-29T04:22:19.811Z,1009.98
2018-11-29T04:23:19.781Z,1009.94
2018-11-29T04:24:19.769Z,1009.99
2018-11-29T04:25:19.734Z,1009.96
2018-11-29T04:26:19.709Z,1009.94
2018-11-29T04:27:19.690Z,1009.94
2018-11-29T04:28:19.663Z,1009.88
2018-11-29T04:29:19.641Z,1009.91
2018-11-29T04:30:19.618Z,1009.90
2018-11-29T04:31:19.597Z,1009.88
2018-11-29T04:32:19.586Z,1009.94
2018-11-29T04:33:19.556Z,1009.92
2018-11-29T04:34:19.534Z,1009.94
2018-11-29T04:35:19.504Z,1009.89
2018-11-29T04:36:19.482Z,1009.94
2018-11-29T04:37:19.458Z,1009.98
2018-11-29T04:38:19.434Z,1009.91
2018-11-29T04:39:19.413Z,1009.92
2018-11-29T04:40:19.398Z,1009.95
2018-11-29T04:41:19.368Z,1009.95
2018-11-29T04:42:19.346Z,1009.96
2018-11-29T04:43:19.323Z,1009.98
2018-11-29T04:44:19.298Z,1009.96
2018-11-29T04:45:19.324Z,1009.98
2018-11-29T04:46:19.252Z,1009.98
2018-11-29T04:47:19.245Z,1009.99
2018-11-29T04:48:19.207Z,1009.99
2018-11-29T04:49:19.185Z,1009.98
2018-11-29T04:50:19.174Z,1009.99
2018-11-29T04:51:19.146Z,1009.98
2018-11-29T04:52:19.116Z,1009.91
2018-11-29T04:53:19.094Z,1009.91
2018-11-29T04:54:19.069Z,1009.90
2018-11-29T04:55:19.047Z,1009.89
2018-11-29T04:56:19.028Z,1009.95
2018-11-29T04:57:19.000Z,1009.91
2018-11-29T04:58:18.980Z,1009.90
2018-11-29T04:59:18.967Z,1009.83
2018-11-29T05:00:18.933Z,1009.83
2018-11-29T05:01:18.908Z,1009.84
2018-11-29T05:02:18.892Z,1009.77
2018-11-29T05:03:18.863Z,1009.73
2018-11-29T05:04:18.841Z,1009.78
2018-11-29T05:05:18.819Z,1009.75
2018-11-29T05:06:18.796Z,1009.77
2018-11-29T05:07:18.786Z,1009.77
2018-11-29T05:08:18.768Z,1009.78
2018-11-29T05:09:18.725Z,1009.75
2018-11-29T05:10:18.703Z,1009.75
2018-11-29T05:11:18.681Z,1009.72
2018-11-29T05:12:18.664Z,1009.73
2018-11-29T05:13:18.636Z,1009.69
2018-11-29T05:14:18.615Z,1009.70
2018-11-29T05:15:18.591Z,1009.70
2018-11-29T05:16:18.576Z,1009.67
2018-11-29T05:17:18.545Z,1009.72
2018-11-29T05:18:18.843Z,1009.70
2018-11-29T05:19:18.506Z,1009.68
2018-11-29T05:20:18.475Z,1009.67
2018-11-29T05:21:18.452Z,1009.67
2018-11-29T05:22:18.439Z,1009.64
2018-11-29T05:23:18.412Z,1009.67
2018-11-29T05:24:18.388Z,1009.65
2018-11-29T05:25:18.380Z,1009.60
2018-11-29T05:26:18.348Z,1009.58
2018-11-29T05:27:18.314Z,1009.55
2018-11-29T05:28:18.292Z,1009.58
2018-11-29T05:29:18.289Z,1009.52
2018-11-29T05:30:18.249Z,1009.52
2018-11-29T05:31:18.225Z,1009.52
2018-11-29T05:32:18.201Z,1009.53
2018-11-29T05:33:18.176Z,1009.54
2018-11-29T05:34:18.154Z,1009.53
2018-11-29T05:35:18.129Z,1009.54
2018-11-29T05:36:18.109Z,1009.59
2018-11-29T05:37:18.085Z,1009.50
2018-11-29T05:38:18.064Z,1009.61
2018-11-29T05:39:18.044Z,1009.56
2018-11-29T05:40:18.016Z,1009.57
2018-11-29T05:41:17.994Z,1009.56
2018-11-29T05:42:17.973Z,1009.46
2018-11-29T05:43:17.949Z,1009.47
2018-11-29T05:44:17.925Z,1009.52
2018-11-29T05:45:17.909Z,1009.49
2018-11-29T05:46:17.878Z,1009.50
2018-11-29T05:47:17.856Z,1009.55
2018-11-29T05:48:17.834Z,1009.47
2018-11-29T05:49:17.814Z,1009.50
2018-11-29T05:50:17.788Z,1009.52
2018-11-29T05:51:17.763Z,1009.59
2018-11-29T05:52:17.759Z,1009.54
2018-11-29T05:53:17.719Z,1009.57
2018-11-29T05:54:17.756Z,1009.55
2018-11-29T05:55:17.679Z,1009.51
2018-11-29T05:56:17.659Z,1009.51
2018-11-29T05:57:17.626Z,1009.53
2018-11-29T05:58:17.602Z,1009.57
2018-11-29T05:59:17.581Z,1009.53
2018-11-29T06:00:17.571Z,1009.54
2018-11-29T06:01:17.535Z,1009.53
2018-11-29T06:02:17.516Z,1009.50
2018-11-29T06:03:17.496Z,1009.50
2018-11-29T06:04:17.466Z,1009.49
2018-11-29T06:05:17.450Z,1009.48
2018-11-29T06:06:17.427Z,1009.49
2018-11-29T06:07:17.396Z,1009.46
2018-11-29T06:08:17.372Z,1009.48
2018-11-29T06:09:17.348Z,1009.49
2018-11-29T06:10:17.328Z,1009.47
2018-11-29T06:11:17.306Z,1009.51
2018-11-29T06:12:17.281Z,1009.57
2018-11-29T06:13:17.260Z,1009.50
2018-11-29T06:14:17.234Z,1009.49
2018-11-29T06:15:17.227Z,1009.52
2018-11-29T06:16:17.190Z,1009.49
2018-11-29T06:17:17.173Z,1009.52
2018-11-29T06:18:17.141Z,1009.50
2018-11-29T06:19:17.128Z,1009.52
2018-11-29T06:20:17.098Z,1009.49
2018-11-29T06:21:17.071Z,1009.46
2018-11-29T06:22:17.051Z,1009.44
2018-11-29T06:23:17.026Z,1009.49
2018-11-29T06:24:17.004Z,1009.47
2018-11-29T06:25:17.000Z,1009.45
2018-11-29T06:26:16.962Z,1009.48
2018-11-29T06:27:16.934Z,1009.47
2018-11-29T06:28:16.910Z,1009.46
2018-11-29T06:29:16.887Z,1009.45
2018-11-29T06:30:16.863Z,1009.42
2018-11-29T06:31:16.842Z,1009.44
2018-11-29T06:32:16.822Z,1009.42
2018-11-29T06:33:16.794Z,1009.39
2018-11-29T06:34:16.774Z,1009.38
2018-11-29T06:35:16.750Z,1009.41
2018-11-29T06:36:16.727Z,1009.45
2018-11-29T06:37:16.705Z,1009.43
2018-11-29T06:38:16.681Z,1009.46
2018-11-29T06:39:16.655Z,1009.45
2018-11-29T06:40:16.631Z,1009.44
2018-11-29T06:41:16.618Z,1009.44
2018-11-29T06:42:16.587Z,1009.43
2018-11-29T06:43:16.563Z,1009.49
2018-11-29T06:44:16.549Z,1009.43
2018-11-29T06:45:16.525Z,1009.49
2018-11-29T06:46:16.498Z,1009.43
2018-11-29T06:47:16.470Z,1009.43
2018-11-29T06:48:16.458Z,1009.41
2018-11-29T06:49:16.427Z,1009.39
2018-11-29T06:50:16.400Z,1009.40
2018-11-29T06:51:16.378Z,1009.39
2018-11-29T06:52:16.354Z,1009.38
2018-11-29T06:53:16.337Z,1009.40
2018-11-29T06:54:16.312Z,1009.40
2018-11-29T06:55:16.289Z,1009.38
2018-11-29T06:56:16.262Z,1009.35
2018-11-29T06:57:16.239Z,1009.37
2018-11-29T06:58:16.935Z,1009.38
2018-11-29T06:59:16.194Z,1009.36
2018-11-29T07:00:16.202Z,1009.36
2018-11-29T07:01:16.147Z,1009.36
2018-11-29T07:02:16.129Z,1009.36
2018-11-29T07:03:16.101Z,1009.36
2018-11-29T07:04:16.079Z,1009.40
2018-11-29T07:05:16.051Z,1009.31
2018-11-29T07:06:16.036Z,1009.33
2018-11-29T07:07:16.005Z,1009.33
2018-11-29T07:08:15.982Z,1009.31
2018-11-29T07:09:15.958Z,1009.30
2018-11-29T07:10:15.936Z,1009.30
2018-11-29T07:11:15.912Z,1009.30
2018-11-29T07:12:15.896Z,1009.30
2018-11-29T07:13:15.865Z,1009.28
2018-11-29T07:14:15.894Z,1009.26
2018-11-29T07:15:15.819Z,1009.26
2018-11-29T07:16:15.797Z,1009.31
2018-11-29T07:17:15.772Z,1009.26
2018-11-29T07:18:15.753Z,1009.24
2018-11-29T07:19:15.732Z,1009.28
2018-11-29T07:20:15.703Z,1009.25
2018-11-29T07:21:15.684Z,1009.24
2018-11-29T07:22:15.663Z,1009.26
2018-11-29T07:23:15.633Z,1009.24
2018-11-29T07:24:15.614Z,1009.22
2018-11-29T07:25:15.588Z,1009.23
2018-11-29T07:26:15.568Z,1009.23
2018-11-29T07:27:15.540Z,1009.22
2018-11-29T07:28:15.517Z,1009.20
2018-11-29T07:29:17.110Z,1009.15
2018-11-29T07:30:15.471Z,1009.16
2018-11-29T07:31:15.447Z,1009.12
2018-11-29T07:32:15.425Z,1009.17
2018-11-29T07:33:15.401Z,1009.13
2018-11-29T07:34:15.377Z,1009.12
2018-11-29T07:35:15.358Z,1009.10
2018-11-29T07:36:15.342Z,1009.17
2018-11-29T07:37:17.480Z,1009.08
2018-11-29T07:38:15.286Z,1009.11
2018-11-29T07:39:15.270Z,1009.13
2018-11-29T07:40:15.240Z,1009.16
2018-11-29T07:41:15.220Z,1009.18
2018-11-29T07:42:15.200Z,1009.15
2018-11-29T07:43:15.169Z,1009.17
2018-11-29T07:44:15.173Z,1009.19
2018-11-29T07:45:15.139Z,1009.16
2018-11-29T07:46:15.102Z,1009.13
2018-11-29T07:47:15.076Z,1009.11
2018-11-29T07:48:15.063Z,1009.13
2018-11-29T07:49:15.032Z,1009.11
2018-11-29T07:50:15.009Z,1009.14
2018-11-29T07:51:14.983Z,1009.13
2018-11-29T07:52:14.965Z,1009.13
2018-11-29T07:53:14.941Z,1009.11
2018-11-29T07:54:14.913Z,1009.13
2018-11-29T07:55:14.892Z,1009.12
2018-11-29T07:56:14.873Z,1009.05
2018-11-29T07:57:14.846Z,1009.11
2018-11-29T07:58:14.832Z,1009.12
2018-11-29T07:59:14.799Z,1009.15
2018-11-29T08:00:14.787Z,1009.13
2018-11-29T08:01:14.752Z,1009.11
2018-11-29T08:02:14.731Z,1009.12
2018-11-29T08:03:14.708Z,1009.09
2018-11-29T08:04:14.697Z,1009.10
2018-11-29T08:05:14.662Z,1009.06
2018-11-29T08:06:14.645Z,1009.09
2018-11-29T08:07:14.622Z,1009.07
2018-11-29T08:08:14.608Z,1009.02
2018-11-29T08:09:14.571Z,1009.06
2018-11-29T08:10:14.545Z,1009.03
2018-11-29T08:11:14.523Z,1008.99
2018-11-29T08:12:14.509Z,1009.01
2018-11-29T08:13:14.478Z,1009.01
2018-11-29T08:14:14.455Z,1009.05
2018-11-29T08:15:14.432Z,1009.01
2018-11-29T08:16:14.410Z,1009.06
2018-11-29T08:17:14.390Z,1009.01
2018-11-29T08:18:14.365Z,1009.03
2018-11-29T08:19:14.342Z,1009.02
2018-11-29T08:20:14.325Z,1008.98
2018-11-29T08:21:14.302Z,1008.95
2018-11-29T08:22:14.271Z,1008.97
2018-11-29T08:23:14.257Z,1008.95
2018-11-29T08:24:14.226Z,1008.93
2018-11-29T08:25:14.204Z,1008.99
2018-11-29T08:26:14.188Z,1008.97
2018-11-29T08:27:14.157Z,1008.93
2018-11-29T08:28:14.145Z,1008.94
2018-11-29T08:29:14.113Z,1008.94
2018-11-29T08:30:14.110Z,1008.92
2018-11-29T08:31:14.069Z,1008.94
2018-11-29T08:32:14.048Z,1008.89
2018-11-29T08:33:14.027Z,1008.93
2018-11-29T08:34:14.001Z,1008.96
2018-11-29T08:35:13.980Z,1008.98
2018-11-29T08:36:13.956Z,1008.92
2018-11-29T08:37:13.932Z,1008.93
2018-11-29T08:38:13.907Z,1008.92
2018-11-29T08:39:13.887Z,1008.91
2018-11-29T08:40:13.874Z,1008.89
2018-11-29T08:41:13.868Z,1008.93
2018-11-29T08:42:13.816Z,1008.95
2018-11-29T08:43:13.803Z,1008.92
2018-11-29T08:44:13.773Z,1008.94
2018-11-29T08:45:13.755Z,1008.90
2018-11-29T08:46:13.725Z,1008.88
2018-11-29T08:47:13.703Z,1008.91
2018-11-29T08:48:13.835Z,1008.89
2018-11-29T08:49:13.657Z,1008.92
2018-11-29T08:50:13.634Z,1008.92
2018-11-29T08:51:13.612Z,1008.92
2018-11-29T08:52:13.589Z,1008.94
2018-11-29T08:53:13.571Z,1008.90
2018-11-29T08:54:13.562Z,1008.90
2018-11-29T08:55:13.521Z,1008.88
2018-11-29T08:56:13.498Z,1008.85
2018-11-29T08:57:13.474Z,1008.86
2018-11-29T08:58:13.456Z,1008.85
2018-11-29T08:59:13.430Z,1008.83
2018-11-29T09:00:13.409Z,1008.82
2018-11-29T09:01:13.391Z,1008.86
2018-11-29T09:02:13.412Z,1008.87
2018-11-29T09:03:13.346Z,1008.86
2018-11-29T09:04:13.323Z,1008.87
2018-11-29T09:05:13.291Z,1008.85
2018-11-29T09:06:13.274Z,1008.84
2018-11-29T09:07:13.256Z,1008.85
2018-11-29T09:08:13.226Z,1008.86
2018-11-29T09:09:13.215Z,1008.86
2018-11-29T09:10:13.201Z,1008.84
2018-11-29T09:11:13.159Z,1008.83
2018-11-29T09:12:13.151Z,1008.81
2018-11-29T09:13:13.112Z,1008.83
2018-11-29T09:14:13.096Z,1008.80
2018-11-29T09:15:13.067Z,1008.80
2018-11-29T09:16:13.055Z,1008.81
2018-11-29T09:17:13.026Z,1008.74
2018-11-29T09:18:12.999Z,1008.74
2018-11-29T09:19:12.987Z,1008.71
2018-11-29T09:20:12.954Z,1008.73
2018-11-29T09:21:13.021Z,1008.73
2018-11-29T09:22:12.912Z,1008.72
2018-11-29T09:23:12.888Z,1008.72
2018-11-29T09:24:12.876Z,1008.73
2018-11-29T09:25:12.843Z,1008.77
2018-11-29T09:26:12.819Z,1008.71
2018-11-29T09:27:12.898Z,1008.78
2018-11-29T09:28:12.776Z,1008.78
2018-11-29T09:29:13.824Z,1008.76
2018-11-29T09:30:12.747Z,1008.82
2018-11-29T09:31:12.711Z,1008.88
2018-11-29T09:32:12.685Z,1008.91
2018-11-29T09:33:12.663Z,1008.93
2018-11-29T09:34:12.639Z,1008.98
2018-11-29T09:35:12.645Z,1008.98
2018-11-29T09:36:12.600Z,1009.02
2018-11-29T09:37:12.575Z,1009.05
2018-11-29T09:38:12.551Z,1009.05
2018-11-29T09:39:12.529Z,1009.05
2018-11-29T09:40:12.506Z,1009.05
2018-11-29T09:41:12.493Z,1009.02
2018-11-29T09:42:12.461Z,1009.01
2018-11-29T09:43:12.447Z,1009.04
2018-11-29T09:44:12.425Z,1009.06
2018-11-29T09:45:12.393Z,1009.05
2018-11-29T09:46:12.376Z,1009.10
2018-11-29T09:47:12.350Z,1009.09
2018-11-29T09:48:12.330Z,1009.10
2018-11-29T09:49:12.314Z,1009.09
2018-11-29T09:50:12.283Z,1009.08
2018-11-29T09:51:12.272Z,1009.07
2018-11-29T09:52:12.240Z,1009.07
2018-11-29T09:53:12.216Z,1009.00
2018-11-29T09:54:12.193Z,1009.02
2018-11-29T09:55:12.189Z,1008.93
2018-11-29T09:56:12.149Z,1008.94
2018-11-29T09:57:12.127Z,1008.97
2018-11-29T09:58:12.104Z,1008.96
2018-11-29T09:59:12.088Z,1008.92
2018-11-29T10:00:12.069Z,1008.92
2018-11-29T10:01:12.039Z,1008.96
2018-11-29T10:02:12.017Z,1008.86
2018-11-29T10:03:11.997Z,1008.93
2018-11-29T10:04:11.980Z,1008.90
2018-11-29T10:05:11.950Z,1008.88
2018-11-29T10:06:11.938Z,1008.81
2018-11-29T10:07:11.906Z,1008.80
2018-11-29T10:08:12.308Z,1008.83
2018-11-29T10:09:11.863Z,1008.79
2018-11-29T10:10:11.841Z,1008.78
2018-11-29T10:11:11.818Z,1008.81
2018-11-29T10:12:11.795Z,1008.77
2018-11-29T10:13:11.776Z,1008.74
2018-11-29T10:14:11.761Z,1008.68
2018-11-29T10:15:11.737Z,1008.70
2018-11-29T10:16:11.718Z,1008.73
2018-11-29T10:17:11.693Z,1008.77
2018-11-29T10:18:11.668Z,1008.78
2018-11-29T10:19:11.655Z,1008.77
2018-11-29T10:20:11.623Z,1008.74
2018-11-29T10:21:11.601Z,1008.74
2018-11-29T10:22:11.579Z,1008.75
2018-11-29T10:23:11.571Z,1008.76
2018-11-29T10:24:11.539Z,1008.68
2018-11-29T10:25:11.514Z,1008.74
2018-11-29T10:26:11.518Z,1008.69
2018-11-29T10:27:11.473Z,1008.68
2018-11-29T10:28:11.451Z,1008.68
2018-11-29T10:29:11.448Z,1008.64
2018-11-29T10:30:11.408Z,1008.65
2018-11-29T10:31:11.390Z,1008.62
2018-11-29T10:32:11.375Z,1008.59
2018-11-29T10:33:11.350Z,1008.55
2018-11-29T10:34:11.327Z,1008.56
2018-11-29T10:35:11.301Z,1008.57
2018-11-29T10:36:11.286Z,1008.55
2018-11-29T10:37:11.257Z,1008.54
2018-11-29T10:38:11.235Z,1008.54
2018-11-29T10:39:11.215Z,1008.48
2018-11-29T10:40:11.193Z,1008.48
2018-11-29T10:41:11.172Z,1008.48
2018-11-29T10:42:11.156Z,1008.49
2018-11-29T10:43:11.129Z,1008.48
2018-11-29T10:44:11.108Z,1008.42
2018-11-29T10:45:11.085Z,1008.39
2018-11-29T10:46:11.063Z,1008.32
2018-11-29T10:47:11.046Z,1008.33
2018-11-29T10:48:11.022Z,1008.30
2018-11-29T10:49:11.004Z,1008.35
2018-11-29T10:50:10.978Z,1008.37
2018-11-29T10:51:10.957Z,1008.41
2018-11-29T10:52:10.936Z,1008.40
2018-11-29T10:53:10.912Z,1008.34
2018-11-29T10:54:10.891Z,1008.32
2018-11-29T10:55:10.879Z,1008.33
2018-11-29T10:56:10.857Z,1008.27
2018-11-29T10:57:10.828Z,1008.26
2018-11-29T10:58:10.906Z,1008.28
2018-11-29T10:59:10.785Z,1008.29
2018-11-29T11:00:10.764Z,1008.21
2018-11-29T11:01:10.756Z,1008.21
2018-11-29T11:02:10.725Z,1008.18
2018-11-29T11:03:10.701Z,1008.19
2018-11-29T11:04:10.677Z,1008.17
2018-11-29T11:05:10.662Z,1008.15
2018-11-29T11:06:10.635Z,1008.17
2018-11-29T11:07:10.612Z,1008.13
2018-11-29T11:08:10.593Z,1008.14
2018-11-29T11:09:10.580Z,1008.12
2018-11-29T11:10:10.549Z,1008.07
2018-11-29T11:11:10.528Z,1008.11
2018-11-29T11:12:10.507Z,1008.09
2018-11-29T11:13:10.486Z,1008.04
2018-11-29T11:14:10.465Z,1008.04
2018-11-29T11:15:10.446Z,1008.03
2018-11-29T11:16:10.420Z,1007.94
2018-11-29T11:17:10.398Z,1007.93
2018-11-29T11:18:10.385Z,1007.89
2018-11-29T11:19:10.357Z,1007.88
2018-11-29T11:20:10.350Z,1007.83
2018-11-29T11:21:10.318Z,1007.80
2018-11-29T11:22:10.290Z,1007.82
2018-11-29T11:23:10.274Z,1007.79
2018-11-29T11:24:10.253Z,1007.79
2018-11-29T11:25:10.226Z,1007.76
2018-11-29T11:26:10.207Z,1007.74
2018-11-29T11:27:10.185Z,1007.70
2018-11-29T11:28:10.167Z,1007.69
2018-11-29T11:29:10.142Z,1007.71
2018-11-29T11:30:10.121Z,1007.75
2018-11-29T11:31:10.258Z,1007.67
2018-11-29T11:32:10.078Z,1007.59
2018-11-29T11:33:10.056Z,1007.55
2018-11-29T11:34:10.047Z,1007.51
2018-11-29T11:35:10.014Z,1007.43
2018-11-29T11:36:10.006Z,1007.35
2018-11-29T11:37:09.971Z,1007.30
2018-11-29T11:38:09.951Z,1007.29
2018-11-29T11:39:09.928Z,1007.34
2018-11-29T11:40:09.916Z,1007.40
2018-11-29T11:41:09.922Z,1007.49
2018-11-29T11:42:09.864Z,1007.50
2018-11-29T11:43:09.851Z,1007.49
2018-11-29T11:44:09.829Z,1007.43
2018-11-29T11:45:09.801Z,1007.40
2018-11-29T11:46:09.779Z,1007.31
2018-11-29T11:47:09.759Z,1007.34
2018-11-29T11:48:09.739Z,1007.31
2018-11-29T11:49:09.718Z,1007.29
2018-11-29T11:50:10.797Z,1007.31
2018-11-29T11:51:09.675Z,1007.41
2018-11-29T11:52:09.859Z,1007.43
2018-11-29T11:53:09.639Z,1007.55
2018-11-29T11:54:09.621Z,1007.53
2018-11-29T11:55:09.591Z,1007.51
2018-11-29T11:56:09.571Z,1007.58
2018-11-29T11:57:09.548Z,1007.66
2018-11-29T11:58:09.529Z,1007.68
2018-11-29T11:59:09.541Z,1007.75
2018-11-29T12:00:09.490Z,1007.73
2018-11-29T12:01:09.474Z,1007.71
2018-11-29T12:02:09.455Z,1007.74
2018-11-29T12:03:09.423Z,1007.70
2018-11-29T12:04:09.408Z,1007.71
2018-11-29T12:05:09.384Z,1007.72